sensor_id;sensor_type;location;lat;lon;timestamp;temperature;humidity
22426;DHT22;11380;50.822;15.790;2023-08-12T00:01:10;13.80;1.00
22426;DHT22;11380;50.822;15.790;2023-08-12T00:06:18;13.70;1.00
22426;DHT22;11380;50.822;15.790;2023-08-12T00:11:25;13.80;1.00
22426;DHT22;11380;50.822;15.790;2023-08-12T00:16:33;13.80;1.00
22426;DHT22;11380;50.822;15.790;2023-08-12T00:21:40;13.70;1.00
22426;DHT22;11380;50.822;15.790;2023-08-12T00:26:47;13.80;1.00
22426;DHT22;11380;50.822;15.790;2023-08-12T00:31:54;13.30;1.00
22426;DHT22;11380;50.822;15.790;2023-08-12T00:37:01;13.50;1.00
22426;DHT22;11380;50.822;15.790;2023-08-12T00:42:09;13.40;1.00
22426;DHT22;11380;50.822;15.790;2023-08-12T00:47:16;13.40;1.00
22426;DHT22;11380;50.822;15.790;2023-08-12T00:52:24;13.50;1.00
22426;DHT22;11380;50.822;15.790;2023-08-12T00:57:32;13.50;1.00
22426;DHT22;11380;50.822;15.790;2023-08-12T01:02:38;13.50;1.00
22426;DHT22;11380;50.822;15.790;2023-08-12T01:07:47;13.30;1.00
22426;DHT22;11380;50.822;15.790;2023-08-12T01:12:59;13.50;1.00
22426;DHT22;11380;50.822;15.790;2023-08-12T01:18:07;13.40;1.00
22426;DHT22;11380;50.822;15.790;2023-08-12T01:23:15;13.10;1.00
22426;DHT22;11380;50.822;15.790;2023-08-12T01:28:22;13.20;1.00
22426;DHT22;11380;50.822;15.790;2023-08-12T01:33:44;13.30;1.00
22426;DHT22;11380;50.822;15.790;2023-08-12T01:39:10;13.30;1.00
22426;DHT22;11380;50.822;15.790;2023-08-12T01:44:18;13.10;1.00
22426;DHT22;11380;50.822;15.790;2023-08-12T01:49:25;13.30;1.00
22426;DHT22;11380;50.822;15.790;2023-08-12T01:54:33;13.40;1.00
22426;DHT22;11380;50.822;15.790;2023-08-12T01:59:43;13.40;1.00
22426;DHT22;11380;50.822;15.790;2023-08-12T02:04:50;13.50;1.00
22426;DHT22;11380;50.822;15.790;2023-08-12T02:09:58;13.30;1.00
22426;DHT22;11380;50.822;15.790;2023-08-12T02:15:05;13.00;1.00
22426;DHT22;11380;50.822;15.790;2023-08-12T02:20:12;12.90;1.00
22426;DHT22;11380;50.822;15.790;2023-08-12T02:25:21;12.70;1.00
22426;DHT22;11380;50.822;15.790;2023-08-12T02:30:29;12.90;1.00
22426;DHT22;11380;50.822;15.790;2023-08-12T02:35:36;12.60;1.00
22426;DHT22;11380;50.822;15.790;2023-08-12T02:40:47;12.40;1.00
22426;DHT22;11380;50.822;15.790;2023-08-12T02:45:55;12.60;1.00
22426;DHT22;11380;50.822;15.790;2023-08-12T02:51:02;12.50;1.00
22426;DHT22;11380;50.822;15.790;2023-08-12T02:56:09;12.40;1.00
22426;DHT22;11380;50.822;15.790;2023-08-12T03:01:18;12.30;1.00
22426;DHT22;11380;50.822;15.790;2023-08-12T03:06:26;12.50;1.00
22426;DHT22;11380;50.822;15.790;2023-08-12T03:11:34;12.60;1.00
22426;DHT22;11380;50.822;15.790;2023-08-12T03:16:41;12.50;1.00
22426;DHT22;11380;50.822;15.790;2023-08-12T03:21:47;12.60;1.00
22426;DHT22;11380;50.822;15.790;2023-08-12T03:26:54;12.20;1.00
22426;DHT22;11380;50.822;15.790;2023-08-12T03:32:01;12.70;1.00
22426;DHT22;11380;50.822;15.790;2023-08-12T03:37:08;12.70;1.00
22426;DHT22;11380;50.822;15.790;2023-08-12T03:42:15;12.80;1.00
22426;DHT22;11380;50.822;15.790;2023-08-12T03:47:22;13.00;1.00
22426;DHT22;11380;50.822;15.790;2023-08-12T03:52:30;12.90;1.00
22426;DHT22;11380;50.822;15.790;2023-08-12T03:57:37;13.00;1.00
22426;DHT22;11380;50.822;15.790;2023-08-12T04:02:44;13.00;1.00
22426;DHT22;11380;50.822;15.790;2023-08-12T04:07:51;13.20;1.00
22426;DHT22;11380;50.822;15.790;2023-08-12T04:12:59;13.20;1.00
22426;DHT22;11380;50.822;15.790;2023-08-12T04:18:07;13.20;1.00
22426;DHT22;11380;50.822;15.790;2023-08-12T04:23:13;13.20;1.00
22426;DHT22;11380;50.822;15.790;2023-08-12T04:28:21;13.20;1.00
22426;DHT22;11380;50.822;15.790;2023-08-12T04:33:28;13.50;1.00
22426;DHT22;11380;50.822;15.790;2023-08-12T04:38:35;13.60;1.00
22426;DHT22;11380;50.822;15.790;2023-08-12T04:43:42;13.70;1.00
22426;DHT22;11380;50.822;15.790;2023-08-12T04:48:50;13.60;1.00
22426;DHT22;11380;50.822;15.790;2023-08-12T04:53:57;14.00;1.00
22426;DHT22;11380;50.822;15.790;2023-08-12T04:59:07;14.10;1.00
22426;DHT22;11380;50.822;15.790;2023-08-12T05:04:16;14.30;1.00
22426;DHT22;11380;50.822;15.790;2023-08-12T05:09:23;14.40;1.00
22426;DHT22;11380;50.822;15.790;2023-08-12T05:14:32;14.60;1.00
22426;DHT22;11380;50.822;15.790;2023-08-12T05:19:39;14.70;1.00
22426;DHT22;11380;50.822;15.790;2023-08-12T05:24:52;14.90;1.00
22426;DHT22;11380;50.822;15.790;2023-08-12T05:29:59;15.00;21.70
22426;DHT22;11380;50.822;15.790;2023-08-12T05:35:07;15.30;31.40
22426;DHT22;11380;50.822;15.790;2023-08-12T05:40:14;15.60;1.00
22426;DHT22;11380;50.822;15.790;2023-08-12T05:45:21;15.70;1.00
22426;DHT22;11380;50.822;15.790;2023-08-12T05:50:27;16.00;1.00
22426;DHT22;11380;50.822;15.790;2023-08-12T05:55:34;16.30;1.00
22426;DHT22;11380;50.822;15.790;2023-08-12T06:00:41;16.40;1.00
22426;DHT22;11380;50.822;15.790;2023-08-12T06:05:50;16.40;5.70
22426;DHT22;11380;50.822;15.790;2023-08-12T06:10:59;16.80;1.00
22426;DHT22;11380;50.822;15.790;2023-08-12T06:16:06;17.10;1.00
22426;DHT22;11380;50.822;15.790;2023-08-12T06:21:14;17.60;1.00
22426;DHT22;11380;50.822;15.790;2023-08-12T06:26:20;18.10;1.00
22426;DHT22;11380;50.822;15.790;2023-08-12T06:31:28;18.50;1.00
22426;DHT22;11380;50.822;15.790;2023-08-12T06:36:36;18.70;1.00
22426;DHT22;11380;50.822;15.790;2023-08-12T06:41:43;18.80;1.00
22426;DHT22;11380;50.822;15.790;2023-08-12T06:46:51;18.70;1.00
22426;DHT22;11380;50.822;15.790;2023-08-12T06:51:58;19.00;1.00
22426;DHT22;11380;50.822;15.790;2023-08-12T06:57:05;19.20;1.00
22426;DHT22;11380;50.822;15.790;2023-08-12T07:02:12;19.50;1.00
22426;DHT22;11380;50.822;15.790;2023-08-12T07:07:19;19.90;1.00
22426;DHT22;11380;50.822;15.790;2023-08-12T07:12:27;20.10;1.00
22426;DHT22;11380;50.822;15.790;2023-08-12T07:17:34;20.10;1.00
22426;DHT22;11380;50.822;15.790;2023-08-12T07:22:41;20.60;1.00
22426;DHT22;11380;50.822;15.790;2023-08-12T07:27:49;20.80;1.00
22426;DHT22;11380;50.822;15.790;2023-08-12T07:32:56;21.40;1.00
22426;DHT22;11380;50.822;15.790;2023-08-12T07:38:04;21.60;99.90
22426;DHT22;11380;50.822;15.790;2023-08-12T07:43:11;22.30;99.90
22426;DHT22;11380;50.822;15.790;2023-08-12T07:48:20;22.50;99.90
22426;DHT22;11380;50.822;15.790;2023-08-12T07:53:27;22.70;99.90
22426;DHT22;11380;50.822;15.790;2023-08-12T07:58:34;23.30;99.90
22426;DHT22;11380;50.822;15.790;2023-08-12T08:03:41;23.80;99.90
22426;DHT22;11380;50.822;15.790;2023-08-12T08:08:48;24.00;99.90
22426;DHT22;11380;50.822;15.790;2023-08-12T08:13:57;24.30;99.90
22426;DHT22;11380;50.822;15.790;2023-08-12T08:19:04;24.80;99.90
22426;DHT22;11380;50.822;15.790;2023-08-12T08:24:13;25.10;99.90
22426;DHT22;11380;50.822;15.790;2023-08-12T08:29:20;25.20;1.00
22426;DHT22;11380;50.822;15.790;2023-08-12T08:34:28;25.70;99.90
22426;DHT22;11380;50.822;15.790;2023-08-12T08:39:35;26.20;1.00
22426;DHT22;11380;50.822;15.790;2023-08-12T08:44:42;26.40;1.00
22426;DHT22;11380;50.822;15.790;2023-08-12T08:49:50;26.90;99.90
22426;DHT22;11380;50.822;15.790;2023-08-12T08:54:59;27.40;1.00
22426;DHT22;11380;50.822;15.790;2023-08-12T09:00:12;27.60;1.00
22426;DHT22;11380;50.822;15.790;2023-08-12T09:05:21;27.80;1.00
22426;DHT22;11380;50.822;15.790;2023-08-12T09:10:28;27.70;1.00
22426;DHT22;11380;50.822;15.790;2023-08-12T09:15:37;27.70;1.00
22426;DHT22;11380;50.822;15.790;2023-08-12T09:20:45;28.40;1.00
22426;DHT22;11380;50.822;15.790;2023-08-12T09:25:52;28.50;1.00
22426;DHT22;11380;50.822;15.790;2023-08-12T09:31:00;28.40;1.00
22426;DHT22;11380;50.822;15.790;2023-08-12T09:36:07;28.10;1.00
22426;DHT22;11380;50.822;15.790;2023-08-12T09:41:15;28.50;1.00
22426;DHT22;11380;50.822;15.790;2023-08-12T09:46:22;28.90;1.00
22426;DHT22;11380;50.822;15.790;2023-08-12T09:51:34;28.60;1.00
22426;DHT22;11380;50.822;15.790;2023-08-12T09:56:47;29.40;1.00
22426;DHT22;11380;50.822;15.790;2023-08-12T10:01:55;29.40;1.00
22426;DHT22;11380;50.822;15.790;2023-08-12T10:07:04;29.40;1.00
22426;DHT22;11380;50.822;15.790;2023-08-12T10:12:12;29.00;1.00
22426;DHT22;11380;50.822;15.790;2023-08-12T10:17:20;29.30;1.00
22426;DHT22;11380;50.822;15.790;2023-08-12T10:22:30;29.20;1.00
22426;DHT22;11380;50.822;15.790;2023-08-12T10:27:37;29.80;1.00
22426;DHT22;11380;50.822;15.790;2023-08-12T10:32:45;29.80;1.00
22426;DHT22;11380;50.822;15.790;2023-08-12T10:37:52;30.20;1.00
22426;DHT22;11380;50.822;15.790;2023-08-12T10:43:00;29.90;1.00
22426;DHT22;11380;50.822;15.790;2023-08-12T10:48:15;30.10;1.00
22426;DHT22;11380;50.822;15.790;2023-08-12T10:53:27;30.10;1.00
22426;DHT22;11380;50.822;15.790;2023-08-12T11:03:53;29.40;1.00
22426;DHT22;11380;50.822;15.790;2023-08-12T11:09:00;29.40;1.00
22426;DHT22;11380;50.822;15.790;2023-08-12T11:14:15;30.20;1.00
22426;DHT22;11380;50.822;15.790;2023-08-12T11:19:22;29.50;1.00
22426;DHT22;11380;50.822;15.790;2023-08-12T11:24:29;30.30;1.00
22426;DHT22;11380;50.822;15.790;2023-08-12T11:29:38;30.60;1.00
22426;DHT22;11380;50.822;15.790;2023-08-12T11:34:44;30.90;1.00
22426;DHT22;11380;50.822;15.790;2023-08-12T11:39:52;31.40;1.00
22426;DHT22;11380;50.822;15.790;2023-08-12T11:44:59;31.10;1.00
22426;DHT22;11380;50.822;15.790;2023-08-12T11:50:08;31.40;1.00
22426;DHT22;11380;50.822;15.790;2023-08-12T11:55:16;31.00;1.00
22426;DHT22;11380;50.822;15.790;2023-08-12T12:00:25;30.50;1.00
22426;DHT22;11380;50.822;15.790;2023-08-12T12:05:32;31.20;1.00
22426;DHT22;11380;50.822;15.790;2023-08-12T12:10:39;30.60;1.00
22426;DHT22;11380;50.822;15.790;2023-08-12T12:15:46;31.20;1.00
22426;DHT22;11380;50.822;15.790;2023-08-12T12:20:59;30.90;1.00
22426;DHT22;11380;50.822;15.790;2023-08-12T12:26:06;31.40;1.00
22426;DHT22;11380;50.822;15.790;2023-08-12T12:31:15;31.30;1.00
22426;DHT22;11380;50.822;15.790;2023-08-12T12:36:22;31.20;1.00
22426;DHT22;11380;50.822;15.790;2023-08-12T12:41:29;31.40;1.00
22426;DHT22;11380;50.822;15.790;2023-08-12T12:46:37;31.10;1.00
22426;DHT22;11380;50.822;15.790;2023-08-12T12:51:44;31.40;1.00
22426;DHT22;11380;50.822;15.790;2023-08-12T12:56:51;31.20;1.00
22426;DHT22;11380;50.822;15.790;2023-08-12T13:01:58;31.40;1.00
22426;DHT22;11380;50.822;15.790;2023-08-12T13:07:05;31.50;1.00
22426;DHT22;11380;50.822;15.790;2023-08-12T13:12:12;31.20;1.00
22426;DHT22;11380;50.822;15.790;2023-08-12T13:17:19;31.60;1.00
22426;DHT22;11380;50.822;15.790;2023-08-12T13:22:26;31.40;1.00
22426;DHT22;11380;50.822;15.790;2023-08-12T13:27:32;31.60;1.00
22426;DHT22;11380;50.822;15.790;2023-08-12T13:32:39;31.50;1.00
22426;DHT22;11380;50.822;15.790;2023-08-12T13:37:46;31.20;1.00
22426;DHT22;11380;50.822;15.790;2023-08-12T13:42:54;31.60;1.00
22426;DHT22;11380;50.822;15.790;2023-08-12T13:48:01;31.70;1.00
22426;DHT22;11380;50.822;15.790;2023-08-12T13:53:08;31.60;1.00
22426;DHT22;11380;50.822;15.790;2023-08-12T13:58:15;31.70;1.00
22426;DHT22;11380;50.822;15.790;2023-08-12T14:03:23;30.60;1.00
22426;DHT22;11380;50.822;15.790;2023-08-12T14:08:29;30.30;1.00
22426;DHT22;11380;50.822;15.790;2023-08-12T14:13:36;30.30;1.00
22426;DHT22;11380;50.822;15.790;2023-08-12T14:18:42;30.70;1.00
22426;DHT22;11380;50.822;15.790;2023-08-12T14:23:49;30.50;1.00
22426;DHT22;11380;50.822;15.790;2023-08-12T14:28:56;30.00;1.00
22426;DHT22;11380;50.822;15.790;2023-08-12T14:34:03;30.00;1.00
22426;DHT22;11380;50.822;15.790;2023-08-12T14:39:10;30.00;1.00
22426;DHT22;11380;50.822;15.790;2023-08-12T14:44:17;30.10;1.00
22426;DHT22;11380;50.822;15.790;2023-08-12T14:49:24;29.90;1.00
22426;DHT22;11380;50.822;15.790;2023-08-12T14:54:30;29.80;1.00
22426;DHT22;11380;50.822;15.790;2023-08-12T14:59:38;29.60;1.00
22426;DHT22;11380;50.822;15.790;2023-08-12T15:04:46;30.00;1.00
22426;DHT22;11380;50.822;15.790;2023-08-12T15:09:53;29.80;1.00
22426;DHT22;11380;50.822;15.790;2023-08-12T15:15:02;30.20;1.00
22426;DHT22;11380;50.822;15.790;2023-08-12T15:20:10;29.90;1.00
22426;DHT22;11380;50.822;15.790;2023-08-12T15:25:17;29.90;1.00
22426;DHT22;11380;50.822;15.790;2023-08-12T15:30:23;29.70;1.00
22426;DHT22;11380;50.822;15.790;2023-08-12T15:35:31;29.40;1.00
22426;DHT22;11380;50.822;15.790;2023-08-12T15:40:38;29.10;1.00
22426;DHT22;11380;50.822;15.790;2023-08-12T15:45:46;28.90;1.00
22426;DHT22;11380;50.822;15.790;2023-08-12T15:50:53;29.00;1.00
22426;DHT22;11380;50.822;15.790;2023-08-12T15:56:00;29.10;1.00
22426;DHT22;11380;50.822;15.790;2023-08-12T16:01:07;29.20;1.00
22426;DHT22;11380;50.822;15.790;2023-08-12T16:06:15;29.10;1.00
22426;DHT22;11380;50.822;15.790;2023-08-12T16:11:22;28.90;1.00
22426;DHT22;11380;50.822;15.790;2023-08-12T16:16:31;29.00;1.00
22426;DHT22;11380;50.822;15.790;2023-08-12T16:21:37;28.80;1.00
22426;DHT22;11380;50.822;15.790;2023-08-12T16:26:43;28.70;1.00
22426;DHT22;11380;50.822;15.790;2023-08-12T16:31:50;28.60;1.00
22426;DHT22;11380;50.822;15.790;2023-08-12T16:36:59;28.30;1.00
22426;DHT22;11380;50.822;15.790;2023-08-12T16:42:09;27.80;1.00
22426;DHT22;11380;50.822;15.790;2023-08-12T16:47:17;27.30;1.00
22426;DHT22;11380;50.822;15.790;2023-08-12T16:52:23;26.90;1.00
22426;DHT22;11380;50.822;15.790;2023-08-12T16:57:30;26.80;1.00
22426;DHT22;11380;50.822;15.790;2023-08-12T17:02:37;27.00;1.00
22426;DHT22;11380;50.822;15.790;2023-08-12T17:07:45;27.00;1.00
22426;DHT22;11380;50.822;15.790;2023-08-12T17:12:52;26.90;1.00
22426;DHT22;11380;50.822;15.790;2023-08-12T17:18:01;26.90;1.00
22426;DHT22;11380;50.822;15.790;2023-08-12T17:23:08;26.80;1.00
22426;DHT22;11380;50.822;15.790;2023-08-12T17:28:15;26.90;1.00
22426;DHT22;11380;50.822;15.790;2023-08-12T17:33:23;26.90;1.00
22426;DHT22;11380;50.822;15.790;2023-08-12T17:38:30;26.40;1.00
22426;DHT22;11380;50.822;15.790;2023-08-12T17:43:36;26.00;1.00
22426;DHT22;11380;50.822;15.790;2023-08-12T17:48:43;25.30;1.00
22426;DHT22;11380;50.822;15.790;2023-08-12T17:53:50;25.60;1.00
22426;DHT22;11380;50.822;15.790;2023-08-12T17:58:57;24.90;1.00
22426;DHT22;11380;50.822;15.790;2023-08-12T18:04:05;24.70;1.00
22426;DHT22;11380;50.822;15.790;2023-08-12T18:09:12;24.70;1.00
22426;DHT22;11380;50.822;15.790;2023-08-12T18:14:20;24.70;1.00
22426;DHT22;11380;50.822;15.790;2023-08-12T18:19:27;24.90;1.00
22426;DHT22;11380;50.822;15.790;2023-08-12T18:24:33;24.90;1.00
22426;DHT22;11380;50.822;15.790;2023-08-12T18:29:40;24.90;1.00
22426;DHT22;11380;50.822;15.790;2023-08-12T18:34:49;24.70;1.00
22426;DHT22;11380;50.822;15.790;2023-08-12T18:39:56;25.20;1.00
22426;DHT22;11380;50.822;15.790;2023-08-12T18:45:04;25.10;1.00
22426;DHT22;11380;50.822;15.790;2023-08-12T18:50:11;24.80;1.00
22426;DHT22;11380;50.822;15.790;2023-08-12T18:55:19;24.90;1.00
22426;DHT22;11380;50.822;15.790;2023-08-12T19:00:28;25.00;1.00
22426;DHT22;11380;50.822;15.790;2023-08-12T19:05:36;25.00;1.00
22426;DHT22;11380;50.822;15.790;2023-08-12T19:10:43;24.30;1.00
22426;DHT22;11380;50.822;15.790;2023-08-12T19:15:50;24.00;1.00
22426;DHT22;11380;50.822;15.790;2023-08-12T19:20:58;24.00;1.00
22426;DHT22;11380;50.822;15.790;2023-08-12T19:26:04;24.20;1.00
22426;DHT22;11380;50.822;15.790;2023-08-12T19:31:14;24.60;1.00
22426;DHT22;11380;50.822;15.790;2023-08-12T19:36:22;24.50;1.00
22426;DHT22;11380;50.822;15.790;2023-08-12T19:41:29;24.40;1.00
22426;DHT22;11380;50.822;15.790;2023-08-12T19:46:36;24.50;1.00
22426;DHT22;11380;50.822;15.790;2023-08-12T19:51:44;24.50;1.00
22426;DHT22;11380;50.822;15.790;2023-08-12T19:56:51;24.60;1.00
22426;DHT22;11380;50.822;15.790;2023-08-12T20:01:59;24.70;1.00
22426;DHT22;11380;50.822;15.790;2023-08-12T20:07:06;24.80;1.00
22426;DHT22;11380;50.822;15.790;2023-08-12T20:12:13;24.80;1.00
22426;DHT22;11380;50.822;15.790;2023-08-12T20:17:20;24.90;1.00
22426;DHT22;11380;50.822;15.790;2023-08-12T20:22:27;24.70;1.00
22426;DHT22;11380;50.822;15.790;2023-08-12T20:27:36;24.60;1.00
22426;DHT22;11380;50.822;15.790;2023-08-12T20:32:43;24.90;1.00
22426;DHT22;11380;50.822;15.790;2023-08-12T20:37:50;24.90;1.00
22426;DHT22;11380;50.822;15.790;2023-08-12T20:42:57;24.60;1.00
22426;DHT22;11380;50.822;15.790;2023-08-12T20:48:04;24.40;1.00
22426;DHT22;11380;50.822;15.790;2023-08-12T20:53:13;24.50;1.00
22426;DHT22;11380;50.822;15.790;2023-08-12T20:58:21;24.90;1.00
22426;DHT22;11380;50.822;15.790;2023-08-12T21:03:28;25.00;1.00
22426;DHT22;11380;50.822;15.790;2023-08-12T21:08:34;24.80;1.00
22426;DHT22;11380;50.822;15.790;2023-08-12T21:13:43;24.70;1.00
22426;DHT22;11380;50.822;15.790;2023-08-12T21:18:50;24.80;1.00
22426;DHT22;11380;50.822;15.790;2023-08-12T21:23:56;25.00;1.00
22426;DHT22;11380;50.822;15.790;2023-08-12T21:29:03;25.00;1.00
22426;DHT22;11380;50.822;15.790;2023-08-12T21:34:11;25.00;1.00
22426;DHT22;11380;50.822;15.790;2023-08-12T21:39:19;25.00;1.00
22426;DHT22;11380;50.822;15.790;2023-08-12T21:44:28;25.20;1.00
22426;DHT22;11380;50.822;15.790;2023-08-12T21:49:35;25.10;1.00
22426;DHT22;11380;50.822;15.790;2023-08-12T21:54:42;25.00;1.00
22426;DHT22;11380;50.822;15.790;2023-08-12T21:59:50;25.00;1.00
22426;DHT22;11380;50.822;15.790;2023-08-12T22:04:57;25.00;1.00
22426;DHT22;11380;50.822;15.790;2023-08-12T22:10:05;25.00;1.00
22426;DHT22;11380;50.822;15.790;2023-08-12T22:15:12;24.60;1.00
22426;DHT22;11380;50.822;15.790;2023-08-12T22:20:20;24.20;1.00
22426;DHT22;11380;50.822;15.790;2023-08-12T22:25:27;24.20;1.00
22426;DHT22;11380;50.822;15.790;2023-08-12T22:30:34;24.10;1.00
22426;DHT22;11380;50.822;15.790;2023-08-12T22:35:41;23.90;1.00
22426;DHT22;11380;50.822;15.790;2023-08-12T22:40:48;23.80;1.00
22426;DHT22;11380;50.822;15.790;2023-08-12T22:45:55;23.60;1.00
22426;DHT22;11380;50.822;15.790;2023-08-12T22:51:03;23.50;1.00
22426;DHT22;11380;50.822;15.790;2023-08-12T22:56:09;22.80;1.00
22426;DHT22;11380;50.822;15.790;2023-08-12T23:01:16;22.60;1.00
22426;DHT22;11380;50.822;15.790;2023-08-12T23:06:24;22.40;1.00
22426;DHT22;11380;50.822;15.790;2023-08-12T23:11:31;22.20;99.90
22426;DHT22;11380;50.822;15.790;2023-08-12T23:16:38;21.90;99.90
22426;DHT22;11380;50.822;15.790;2023-08-12T23:21:45;22.00;99.90
22426;DHT22;11380;50.822;15.790;2023-08-12T23:26:53;21.40;99.90
22426;DHT22;11380;50.822;15.790;2023-08-12T23:31:59;21.80;99.90
22426;DHT22;11380;50.822;15.790;2023-08-12T23:37:06;21.70;84.50
22426;DHT22;11380;50.822;15.790;2023-08-12T23:42:13;21.40;1.00
22426;DHT22;11380;50.822;15.790;2023-08-12T23:47:22;21.30;1.00
22426;DHT22;11380;50.822;15.790;2023-08-12T23:52:30;21.30;1.00
22426;DHT22;11380;50.822;15.790;2023-08-12T23:57:38;20.90;1.00
